createdAt,value
2017-07-21T00:01:13.706Z,1.10
2017-07-21T00:03:42.111Z,1.63
2017-07-21T00:06:10.513Z,1.20
2017-07-21T00:08:38.937Z,1.20
2017-07-21T00:11:07.358Z,1.17
2017-07-21T00:13:35.757Z,1.40
2017-07-21T00:16:04.204Z,1.90
2017-07-21T00:18:32.606Z,1.00
2017-07-21T00:21:01.010Z,1.40
2017-07-21T00:23:29.430Z,2.17
2017-07-21T00:25:57.838Z,1.63
2017-07-21T00:28:26.242Z,0.83
2017-07-21T00:30:55.437Z,1.50
2017-07-21T00:33:23.841Z,2.30
2017-07-21T00:35:52.250Z,1.27
2017-07-21T00:38:20.690Z,1.03
2017-07-21T00:40:49.100Z,1.03
2017-07-21T00:43:17.502Z,1.60
2017-07-21T00:45:45.934Z,1.30
2017-07-21T00:48:14.342Z,1.73
2017-07-21T00:50:42.745Z,1.40
2017-07-21T00:53:11.175Z,1.20
2017-07-21T00:55:39.578Z,1.70
2017-07-21T00:58:07.993Z,1.40
2017-07-21T01:00:36.425Z,1.27
2017-07-21T01:03:04.485Z,1.07
2017-07-21T01:05:32.890Z,1.17
2017-07-21T01:08:01.326Z,1.47
2017-07-21T01:10:29.730Z,1.53
2017-07-21T01:12:58.135Z,1.20
2017-07-21T01:15:26.573Z,1.60
2017-07-21T01:17:54.974Z,1.23
2017-07-21T01:20:23.379Z,2.00
2017-07-21T01:22:51.798Z,2.37
2017-07-21T01:25:20.199Z,1.23
2017-07-21T01:27:48.602Z,1.40
2017-07-21T01:30:17.783Z,1.43
2017-07-21T01:32:46.199Z,1.83
2017-07-21T01:35:14.619Z,2.13
2017-07-21T01:37:43.040Z,1.57
2017-07-21T01:40:11.119Z,2.20
2017-07-21T01:42:40.295Z,1.73
2017-07-21T01:45:08.718Z,1.60
2017-07-21T01:47:37.121Z,1.47
2017-07-21T01:50:05.533Z,1.50
2017-07-21T01:52:33.972Z,1.83
2017-07-21T01:55:02.374Z,2.27
2017-07-21T01:57:30.432Z,1.73
2017-07-21T01:59:58.864Z,1.97
2017-07-21T02:02:27.263Z,1.17
2017-07-21T02:04:55.653Z,1.67
2017-07-21T02:07:24.065Z,1.90
2017-07-21T02:09:52.494Z,1.60
2017-07-21T02:12:20.904Z,1.63
2017-07-21T02:14:49.310Z,1.20
2017-07-21T02:17:17.742Z,1.10
2017-07-21T02:19:46.148Z,1.50
2017-07-21T02:22:14.549Z,1.83
2017-07-21T02:24:42.985Z,1.77
2017-07-21T02:27:11.383Z,1.73
2017-07-21T02:29:39.787Z,1.57
2017-07-21T02:32:08.226Z,1.83
2017-07-21T02:34:36.629Z,1.73
2017-07-21T02:37:05.023Z,1.80
2017-07-21T02:39:33.525Z,1.90
2017-07-21T02:42:01.971Z,2.07
2017-07-21T02:44:30.381Z,2.30
2017-07-21T02:46:58.817Z,1.40
2017-07-21T02:49:27.212Z,1.50
2017-07-21T02:51:55.616Z,1.50
2017-07-21T02:54:24.041Z,1.70
2017-07-21T02:56:52.437Z,1.40
2017-07-21T02:59:21.413Z,1.43
2017-07-21T03:01:50.049Z,1.80
2017-07-21T03:04:18.451Z,1.80
2017-07-21T03:06:46.862Z,1.53
2017-07-21T03:09:15.281Z,2.00
2017-07-21T03:11:43.709Z,1.90
2017-07-21T03:14:12.108Z,1.80
2017-07-21T03:16:40.525Z,2.20
2017-07-21T03:19:08.926Z,1.80
2017-07-21T03:21:37.323Z,1.57
2017-07-21T03:24:05.754Z,1.80
2017-07-21T03:26:34.149Z,1.60
2017-07-21T03:29:02.546Z,1.70
2017-07-21T03:31:30.981Z,1.77
2017-07-21T03:33:59.378Z,1.43
2017-07-21T03:36:28.553Z,1.67
2017-07-21T03:38:56.973Z,2.30
2017-07-21T03:41:25.375Z,2.07
2017-07-21T03:43:53.787Z,2.23
2017-07-21T03:46:22.198Z,2.40
2017-07-21T03:48:51.416Z,2.53
2017-07-21T03:51:19.819Z,2.60
2017-07-21T03:53:48.237Z,2.13
2017-07-21T03:56:16.662Z,2.70
2017-07-21T03:58:45.070Z,2.20
2017-07-21T04:01:13.485Z,1.67
2017-07-21T04:03:41.905Z,1.87
2017-07-21T04:06:10.308Z,2.30
2017-07-21T04:08:38.706Z,3.77
2017-07-21T04:11:07.129Z,2.90
2017-07-21T04:13:35.532Z,2.47
2017-07-21T04:16:03.937Z,2.30
2017-07-21T04:18:32.349Z,2.20
2017-07-21T04:21:01.158Z,2.60
2017-07-21T04:23:29.602Z,2.53
2017-07-21T04:25:58.030Z,2.07
2017-07-21T04:28:26.443Z,2.10
2017-07-21T04:30:54.841Z,1.73
2017-07-21T04:33:23.265Z,1.93
2017-07-21T04:35:52.464Z,1.70
2017-07-21T04:38:20.953Z,1.50
2017-07-21T04:40:49.450Z,1.83
2017-07-21T04:43:17.860Z,2.07
2017-07-21T04:45:46.274Z,2.00
2017-07-21T04:48:14.689Z,2.20
2017-07-21T04:50:43.091Z,2.47
2017-07-21T04:53:11.493Z,2.37
2017-07-21T04:55:39.925Z,2.40
2017-07-21T04:58:08.337Z,2.07
2017-07-21T05:00:36.741Z,2.20
2017-07-21T05:03:05.726Z,2.03
2017-07-21T05:05:34.161Z,2.00
2017-07-21T05:08:02.577Z,2.00
2017-07-21T05:10:31.007Z,2.13
2017-07-21T05:12:59.456Z,1.57
2017-07-21T05:15:27.881Z,2.30
2017-07-21T05:17:56.315Z,2.60
2017-07-21T05:20:24.754Z,1.40
2017-07-21T05:22:53.672Z,1.77
2017-07-21T05:25:22.119Z,2.13
2017-07-21T05:27:51.326Z,2.17
2017-07-21T05:30:19.802Z,1.80
2017-07-21T05:32:48.324Z,1.63
2017-07-21T05:35:16.779Z,1.60
2017-07-21T05:37:45.195Z,1.90
2017-07-21T05:40:13.614Z,1.80
2017-07-21T05:42:42.791Z,2.10
2017-07-21T05:45:11.189Z,2.13
2017-07-21T05:47:39.605Z,1.53
2017-07-21T05:50:08.040Z,1.80
2017-07-21T05:52:36.442Z,2.97
2017-07-21T05:55:05.642Z,2.53
2017-07-21T05:57:34.046Z,2.57
2017-07-21T06:00:02.444Z,1.90
2017-07-21T06:02:30.906Z,2.17
2017-07-21T06:04:59.313Z,2.20
2017-07-21T06:07:27.721Z,1.83
2017-07-21T06:09:56.309Z,2.10
2017-07-21T06:12:24.710Z,2.00
2017-07-21T06:14:53.887Z,2.70
2017-07-21T06:17:22.303Z,1.90
2017-07-21T06:19:50.714Z,1.70
2017-07-21T06:22:19.229Z,2.30
2017-07-21T06:24:47.629Z,2.40
2017-07-21T06:27:16.028Z,2.03
2017-07-21T06:29:44.444Z,2.27
2017-07-21T06:32:12.851Z,2.13
2017-07-21T06:34:41.258Z,2.00
2017-07-21T06:37:09.690Z,2.60
2017-07-21T06:39:38.089Z,2.30
2017-07-21T06:42:06.498Z,2.27
2017-07-21T06:44:34.925Z,2.03
2017-07-21T06:47:03.317Z,2.20
2017-07-21T06:49:31.722Z,2.23
2017-07-21T06:52:00.138Z,2.03
2017-07-21T06:54:28.542Z,2.50
2017-07-21T06:56:56.961Z,2.07
2017-07-21T06:59:25.402Z,1.70
2017-07-21T07:01:53.826Z,2.07
2017-07-21T07:04:22.240Z,1.90
2017-07-21T07:06:50.710Z,2.10
2017-07-21T07:09:19.114Z,1.83
2017-07-21T07:11:47.522Z,2.33
2017-07-21T07:14:15.953Z,2.10
2017-07-21T07:16:44.558Z,2.00
2017-07-21T07:19:12.960Z,1.50
2017-07-21T07:21:41.401Z,1.90
2017-07-21T07:24:09.819Z,1.60
2017-07-21T07:26:38.222Z,1.50
2017-07-21T07:29:06.649Z,1.77
2017-07-21T07:31:35.046Z,2.00
2017-07-21T07:34:03.446Z,1.70
2017-07-21T07:36:31.893Z,1.93
2017-07-21T07:39:01.068Z,1.63
2017-07-21T07:41:29.482Z,1.80
2017-07-21T07:43:57.989Z,2.13
2017-07-21T07:46:26.408Z,1.63
2017-07-21T07:48:54.857Z,1.70
2017-07-21T07:51:23.327Z,1.90
2017-07-21T07:53:51.734Z,1.87
2017-07-21T07:56:20.158Z,2.07
2017-07-21T07:58:49.378Z,1.60
2017-07-21T08:01:17.801Z,1.67
2017-07-21T08:03:46.229Z,1.57
2017-07-21T08:06:14.695Z,1.60
2017-07-21T08:08:43.137Z,1.70
2017-07-21T08:11:11.551Z,1.50
2017-07-21T08:13:39.985Z,1.50
2017-07-21T08:16:08.259Z,1.47
2017-07-21T08:18:36.708Z,1.37
2017-07-21T08:21:04.984Z,1.67
2017-07-21T08:23:33.411Z,1.50
2017-07-21T08:26:01.839Z,1.57
2017-07-21T08:28:30.281Z,1.47
2017-07-21T08:30:58.725Z,1.63
2017-07-21T08:33:27.382Z,1.73
2017-07-21T08:35:55.845Z,1.67
2017-07-21T08:38:24.255Z,2.00
2017-07-21T08:40:52.707Z,1.67
2017-07-21T08:43:21.182Z,1.73
2017-07-21T08:45:49.621Z,1.70
2017-07-21T08:48:18.083Z,1.77
2017-07-21T08:50:46.564Z,1.30
2017-07-21T08:53:15.010Z,1.80
2017-07-21T08:55:43.436Z,1.20
2017-07-21T08:58:11.899Z,1.40
2017-07-21T09:00:40.317Z,1.97
2017-07-21T09:03:08.741Z,1.47
2017-07-21T09:05:37.178Z,1.73
2017-07-21T09:08:05.733Z,1.50
2017-07-21T09:10:34.186Z,1.70
2017-07-21T09:13:02.421Z,1.70
2017-07-21T09:15:30.833Z,1.43
2017-07-21T09:17:59.237Z,1.80
2017-07-21T09:20:27.669Z,1.57
2017-07-21T09:22:56.069Z,2.00
2017-07-21T09:25:24.470Z,1.60
2017-07-21T09:27:52.933Z,1.37
2017-07-21T09:30:21.330Z,2.00
2017-07-21T09:32:49.740Z,1.80
2017-07-21T09:35:18.200Z,6.00
2017-07-21T09:37:46.597Z,1.63
2017-07-21T09:40:15.007Z,1.20
2017-07-21T09:42:43.437Z,1.70
2017-07-21T09:45:11.148Z,1.47
2017-07-21T09:47:39.598Z,1.50
2017-07-21T09:50:08.218Z,1.57
2017-07-21T09:52:36.621Z,2.17
2017-07-21T09:55:05.025Z,2.40
2017-07-21T09:57:33.446Z,1.90
2017-07-21T10:00:01.838Z,1.93
2017-07-21T10:02:30.285Z,1.60
2017-07-21T10:04:58.511Z,1.30
2017-07-21T10:07:26.948Z,1.50
2017-07-21T10:09:56.302Z,2.13
2017-07-21T10:12:24.701Z,2.07
2017-07-21T10:14:53.883Z,1.80
2017-07-21T10:17:22.305Z,1.57
2017-07-21T10:19:50.701Z,1.40
2017-07-21T10:22:19.093Z,1.90
2017-07-21T10:24:47.544Z,2.10
2017-07-21T10:27:15.941Z,2.40
2017-07-21T10:29:44.349Z,1.83
2017-07-21T10:32:12.761Z,1.63
2017-07-21T10:34:41.961Z,2.20
2017-07-21T10:37:10.361Z,2.20
2017-07-21T10:39:38.763Z,2.67
2017-07-21T10:42:07.186Z,1.70
2017-07-21T10:44:35.585Z,1.90
2017-07-21T10:47:03.987Z,1.73
2017-07-21T10:49:32.441Z,1.60
2017-07-21T10:52:00.847Z,2.03
2017-07-21T10:54:29.253Z,1.80
2017-07-21T10:56:57.677Z,1.93
2017-07-21T10:59:26.097Z,1.50
2017-07-21T11:01:54.688Z,2.20
2017-07-21T11:04:23.171Z,2.60
2017-07-21T11:06:51.590Z,1.83
2017-07-21T11:09:19.990Z,1.90
2017-07-21T11:11:48.422Z,2.03
2017-07-21T11:14:16.900Z,1.70
2017-07-21T11:16:46.058Z,1.40
2017-07-21T11:19:14.685Z,1.60
2017-07-21T11:21:43.098Z,1.70
2017-07-21T11:24:11.497Z,1.97
2017-07-21T11:26:39.914Z,1.90
2017-07-21T11:29:08.314Z,2.30
2017-07-21T11:31:36.795Z,1.87
2017-07-21T11:34:05.241Z,2.07
2017-07-21T11:36:33.637Z,1.80
2017-07-21T11:39:02.265Z,2.60
2017-07-21T11:41:30.973Z,2.50
2017-07-21T11:43:59.383Z,2.10
2017-07-21T11:46:27.787Z,1.70
2017-07-21T11:48:56.222Z,2.00
2017-07-21T11:51:24.626Z,2.10
2017-07-21T11:53:53.269Z,2.07
2017-07-21T11:56:21.692Z,2.10
2017-07-21T11:58:50.082Z,1.97
2017-07-21T12:01:18.513Z,2.57
2017-07-21T12:03:46.921Z,2.20
2017-07-21T12:06:15.322Z,1.97
2017-07-21T12:08:43.750Z,1.47
2017-07-21T12:11:12.153Z,2.00
2017-07-21T12:13:40.553Z,1.43
2017-07-21T12:16:08.978Z,2.17
2017-07-21T12:18:38.008Z,1.90
2017-07-21T12:21:06.410Z,1.93
2017-07-21T12:23:34.862Z,1.60
2017-07-21T12:26:03.269Z,2.37
2017-07-21T12:28:31.685Z,1.80
2017-07-21T12:31:00.116Z,2.10
2017-07-21T12:33:28.518Z,2.07
2017-07-21T12:35:56.918Z,1.67
2017-07-21T12:38:25.337Z,1.73
2017-07-21T12:40:53.749Z,1.93
2017-07-21T12:43:22.143Z,1.87
2017-07-21T12:45:50.572Z,1.80
2017-07-21T12:48:18.965Z,2.20
2017-07-21T12:50:47.368Z,1.80
2017-07-21T12:53:15.778Z,1.70
2017-07-21T12:55:44.192Z,1.77
2017-07-21T12:58:13.361Z,2.03
2017-07-21T13:00:41.788Z,2.27
2017-07-21T13:03:10.188Z,1.80
2017-07-21T13:05:38.596Z,1.80
2017-07-21T13:08:07.030Z,2.00
2017-07-21T13:10:35.433Z,2.07
2017-07-21T13:13:03.833Z,1.93
2017-07-21T13:15:32.245Z,2.30
2017-07-21T13:18:00.646Z,1.53
2017-07-21T13:20:29.041Z,1.67
2017-07-21T13:22:57.473Z,2.40
2017-07-21T13:25:25.873Z,2.00
2017-07-21T13:27:54.274Z,1.70
2017-07-21T13:30:22.698Z,2.10
2017-07-21T13:32:51.105Z,1.57
2017-07-21T13:35:19.508Z,1.87
2017-07-21T13:37:47.921Z,2.17
2017-07-21T13:40:16.325Z,1.90
2017-07-21T13:42:44.745Z,1.87
2017-07-21T13:45:13.145Z,1.80
2017-07-21T13:47:41.544Z,1.57
2017-07-21T13:50:09.969Z,1.70
2017-07-21T13:52:38.357Z,1.80
2017-07-21T13:55:06.763Z,2.03
2017-07-21T13:57:35.184Z,2.03
2017-07-21T14:00:03.586Z,1.90
2017-07-21T14:02:32.762Z,2.03
2017-07-21T14:05:01.253Z,2.40
2017-07-21T14:07:30.462Z,2.00
2017-07-21T14:09:58.884Z,1.60
2017-07-21T14:12:27.311Z,2.13
2017-07-21T14:14:56.481Z,1.60
2017-07-21T14:17:24.881Z,2.30
2017-07-21T14:19:53.305Z,2.13
2017-07-21T14:22:21.701Z,2.37
2017-07-21T14:24:50.102Z,2.00
2017-07-21T14:27:18.526Z,1.50
2017-07-21T14:29:46.929Z,1.50
2017-07-21T14:32:15.330Z,1.60
2017-07-21T14:34:43.742Z,2.10
2017-07-21T14:37:12.141Z,1.80
2017-07-21T14:39:41.321Z,2.30
2017-07-21T14:42:09.757Z,2.37
2017-07-21T14:44:38.158Z,1.90
2017-07-21T14:47:06.553Z,1.90
2017-07-21T14:49:34.983Z,1.80
2017-07-21T14:52:03.381Z,1.53
2017-07-21T14:54:31.769Z,1.90
2017-07-21T14:57:00.201Z,1.70
2017-07-21T14:59:29.369Z,1.57
2017-07-21T15:01:57.760Z,1.87
2017-07-21T15:04:26.217Z,2.40
2017-07-21T15:06:54.669Z,1.80
2017-07-21T15:09:23.074Z,1.67
2017-07-21T15:11:51.506Z,1.87
2017-07-21T15:14:19.898Z,1.67
2017-07-21T15:16:48.281Z,2.13
2017-07-21T15:19:16.693Z,2.07
2017-07-21T15:21:45.089Z,1.47
2017-07-21T15:24:13.487Z,2.10
2017-07-21T15:26:42.001Z,1.83
2017-07-21T15:29:10.398Z,1.73
2017-07-21T15:31:38.793Z,1.80
2017-07-21T15:34:07.897Z,2.20
2017-07-21T15:36:36.289Z,1.67
2017-07-21T15:39:03.803Z,2.27
2017-07-21T15:41:32.205Z,2.07
2017-07-21T15:44:00.626Z,2.63
2017-07-21T15:46:29.016Z,2.50
2017-07-21T15:48:57.449Z,2.10
2017-07-21T15:51:25.858Z,5.50
2017-07-21T15:53:54.260Z,3.50
2017-07-21T15:56:22.677Z,1.97
2017-07-21T15:58:51.069Z,2.43
2017-07-21T16:01:19.469Z,2.60
2017-07-21T16:03:47.903Z,1.70
2017-07-21T16:06:16.298Z,2.17
2017-07-21T16:08:44.958Z,1.97
2017-07-21T16:11:13.367Z,2.73
2017-07-21T16:13:42.185Z,1.90
2017-07-21T16:16:10.580Z,1.97
2017-07-21T16:18:39.029Z,2.07
2017-07-21T16:21:07.429Z,2.37
2017-07-21T16:23:35.826Z,2.30
2017-07-21T16:26:04.243Z,2.20
2017-07-21T16:28:32.661Z,3.40
2017-07-21T16:31:01.057Z,2.60
2017-07-21T16:33:29.458Z,2.73
2017-07-21T16:35:58.125Z,2.43
2017-07-21T16:38:26.525Z,2.53
2017-07-21T16:40:55.209Z,2.50
2017-07-21T16:43:23.849Z,2.30
2017-07-21T16:45:52.253Z,1.97
2017-07-21T16:48:20.724Z,2.10
2017-07-21T16:50:49.114Z,3.00
2017-07-21T16:53:17.517Z,2.30
2017-07-21T16:55:45.931Z,2.80
2017-07-21T16:58:14.314Z,2.33
2017-07-21T17:00:42.704Z,2.43
2017-07-21T17:03:11.140Z,2.20
2017-07-21T17:05:39.533Z,2.13
2017-07-21T17:08:07.928Z,2.73
2017-07-21T17:10:36.349Z,2.00
2017-07-21T17:13:04.757Z,2.27
2017-07-21T17:15:33.154Z,2.33
2017-07-21T17:18:01.565Z,2.60
2017-07-21T17:20:29.966Z,2.37
2017-07-21T17:22:58.377Z,2.20
2017-07-21T17:25:26.854Z,2.97
2017-07-21T17:27:55.305Z,2.57
2017-07-21T17:30:23.730Z,2.20
2017-07-21T17:32:52.231Z,2.60
2017-07-21T17:35:20.641Z,2.20
2017-07-21T17:37:49.059Z,1.80
2017-07-21T17:40:17.511Z,2.20
2017-07-21T17:42:45.927Z,2.33
2017-07-21T17:45:14.353Z,1.70
2017-07-21T17:47:42.786Z,2.70
2017-07-21T17:50:11.206Z,2.27
2017-07-21T17:52:39.640Z,2.13
2017-07-21T17:55:08.103Z,2.30
2017-07-21T17:57:37.160Z,3.00
2017-07-21T18:00:05.585Z,2.87
2017-07-21T18:02:34.032Z,2.50
2017-07-21T18:05:02.460Z,2.40
2017-07-21T18:07:31.148Z,2.87
2017-07-21T18:09:59.574Z,2.50
2017-07-21T18:12:28.019Z,2.80
2017-07-21T18:14:57.268Z,2.07
2017-07-21T18:17:26.724Z,2.87
2017-07-21T18:19:55.201Z,2.90
2017-07-21T18:22:23.638Z,2.70
2017-07-21T18:24:52.171Z,2.40
2017-07-21T18:27:20.642Z,2.37
2017-07-21T18:29:49.125Z,2.37
2017-07-21T18:32:17.619Z,1.97
2017-07-21T18:34:47.623Z,2.33
2017-07-21T18:37:16.719Z,2.67
2017-07-21T18:39:45.959Z,2.70
2017-07-21T18:42:14.383Z,2.93
2017-07-21T18:44:43.608Z,2.30
2017-07-21T18:47:12.044Z,3.00
2017-07-21T18:49:40.617Z,2.97
2017-07-21T18:52:09.029Z,2.67
2017-07-21T18:54:37.433Z,2.63
2017-07-21T18:57:05.871Z,2.43
2017-07-21T18:59:34.308Z,1.70
2017-07-21T19:02:02.720Z,2.90
2017-07-21T19:04:31.260Z,2.13
2017-07-21T19:06:59.673Z,2.50
2017-07-21T19:09:28.106Z,2.60
2017-07-21T19:11:56.522Z,2.50
2017-07-21T19:14:25.213Z,2.77
2017-07-21T19:16:53.753Z,3.00
2017-07-21T19:19:22.189Z,2.43
2017-07-21T19:21:50.618Z,3.00
2017-07-21T19:24:19.022Z,3.47
2017-07-21T19:26:47.445Z,3.07
2017-07-21T19:29:16.493Z,2.40
2017-07-21T19:31:44.901Z,2.60
2017-07-21T19:34:13.301Z,3.23
2017-07-21T19:36:42.640Z,2.90
2017-07-21T19:39:14.191Z,2.30
2017-07-21T19:41:45.173Z,2.43
2017-07-21T19:44:18.782Z,3.50
2017-07-21T19:46:47.226Z,2.70
2017-07-21T19:49:17.008Z,3.03
2017-07-21T19:51:45.411Z,3.40
2017-07-21T19:54:13.842Z,3.03
2017-07-21T19:56:42.245Z,2.47
2017-07-21T19:59:10.674Z,3.40
2017-07-21T20:01:39.111Z,2.50
2017-07-21T20:04:07.521Z,2.53
2017-07-21T20:06:36.708Z,3.03
2017-07-21T20:09:06.812Z,2.63
2017-07-21T20:11:36.728Z,3.30
2017-07-21T20:14:05.480Z,2.80
2017-07-21T20:16:33.987Z,3.37
2017-07-21T20:19:02.409Z,2.80
2017-07-21T20:21:30.915Z,2.47
2017-07-21T20:23:59.373Z,3.90
2017-07-21T20:26:27.823Z,3.47
2017-07-21T20:28:57.035Z,3.50
2017-07-21T20:31:25.494Z,3.17
2017-07-21T20:33:53.901Z,3.37
2017-07-21T20:36:23.077Z,3.87
2017-07-21T20:38:51.830Z,3.50
2017-07-21T20:41:20.312Z,3.37
2017-07-21T20:43:48.840Z,3.47
2017-07-21T20:46:17.322Z,3.47
2017-07-21T20:48:48.717Z,3.60
2017-07-21T20:51:17.155Z,3.80
2017-07-21T20:53:45.576Z,3.40
2017-07-21T20:56:14.012Z,3.37
2017-07-21T20:58:42.421Z,3.60
2017-07-21T21:01:10.845Z,3.77
2017-07-21T21:03:40.789Z,2.37
2017-07-21T21:06:10.227Z,3.40
2017-07-21T21:08:38.655Z,2.90
2017-07-21T21:11:08.450Z,3.60
2017-07-21T21:13:38.602Z,3.23
2017-07-21T21:16:09.145Z,3.20
2017-07-21T21:18:37.722Z,3.67
2017-07-21T21:21:06.138Z,3.43
2017-07-21T21:23:34.746Z,2.60
2017-07-21T21:26:03.221Z,3.30
2017-07-21T21:28:32.173Z,3.80
2017-07-21T21:31:00.579Z,3.30
2017-07-21T21:33:29.031Z,3.10
2017-07-21T21:35:57.433Z,3.70
2017-07-21T21:38:25.831Z,5.33
2017-07-21T21:40:54.275Z,2.90
2017-07-21T21:43:22.681Z,3.97
2017-07-21T21:45:51.107Z,4.00
2017-07-21T21:48:19.534Z,4.60
2017-07-21T21:50:47.946Z,3.50
2017-07-21T21:53:16.367Z,3.10
2017-07-21T21:55:44.810Z,3.87
2017-07-21T21:58:13.215Z,4.60
2017-07-21T22:00:41.634Z,3.87
2017-07-21T22:03:10.077Z,3.50
2017-07-21T22:05:38.477Z,3.70
2017-07-21T22:08:06.881Z,3.97
2017-07-21T22:10:35.313Z,3.87
2017-07-21T22:13:03.738Z,3.57
2017-07-21T22:15:43.128Z,4.13
2017-07-21T22:18:11.561Z,4.23
2017-07-21T22:20:39.967Z,3.83
2017-07-21T22:23:08.390Z,4.50
2017-07-21T22:25:36.821Z,4.17
2017-07-21T22:28:05.233Z,4.10
2017-07-21T22:30:33.648Z,4.03
2017-07-21T22:33:02.181Z,4.57
2017-07-21T22:35:30.584Z,3.30
2017-07-21T22:37:59.027Z,4.63
2017-07-21T22:40:27.477Z,4.77
2017-07-21T22:42:55.880Z,4.43
2017-07-21T22:45:24.287Z,3.90
2017-07-21T22:47:52.714Z,4.23
2017-07-21T22:50:21.126Z,4.40
2017-07-21T22:52:49.579Z,3.60
2017-07-21T22:55:18.024Z,4.30
2017-07-21T22:57:46.421Z,4.47
2017-07-21T23:00:14.822Z,3.97
2017-07-21T23:02:43.241Z,4.10
2017-07-21T23:05:11.645Z,4.60
2017-07-21T23:07:40.041Z,4.80
2017-07-21T23:10:08.492Z,4.33
2017-07-21T23:12:36.897Z,4.43
2017-07-21T23:15:06.060Z,4.73
2017-07-21T23:17:34.478Z,5.60
2017-07-21T23:20:02.889Z,4.50
2017-07-21T23:22:31.317Z,3.77
2017-07-21T23:24:59.722Z,4.90
2017-07-21T23:27:28.154Z,5.83
2017-07-21T23:29:57.366Z,4.20
2017-07-21T23:32:25.771Z,5.20
2017-07-21T23:34:54.187Z,6.23
2017-07-21T23:37:22.618Z,4.70
2017-07-21T23:39:51.039Z,5.83
2017-07-21T23:42:19.438Z,4.87
2017-07-21T23:44:47.875Z,4.73
2017-07-21T23:47:16.273Z,4.70
2017-07-21T23:49:44.678Z,4.63
2017-07-21T23:52:13.109Z,6.40
2017-07-21T23:54:41.517Z,5.83
2017-07-21T23:57:09.918Z,5.20
2017-07-21T23:59:38.342Z,5.10
